createdAt,value
2023-04-02T00:00:18.184Z,66.10
2023-04-02T00:02:49.236Z,64.40
2023-04-02T00:05:51.259Z,64.80
2023-04-02T00:08:21.540Z,62.90
2023-04-02T00:10:49.939Z,64.10
2023-04-02T00:13:24.809Z,63.80
2023-04-02T00:15:53.303Z,62.20
2023-04-02T00:18:22.626Z,62.80
2023-04-02T00:20:52.185Z,61.80
2023-04-02T00:23:20.164Z,61.40
2023-04-02T00:25:47.921Z,61.60
2023-04-02T00:28:17.044Z,61.00
2023-04-02T00:30:49.139Z,60.00
2023-04-02T00:33:17.214Z,59.10
2023-04-02T00:35:46.236Z,59.70
2023-04-02T00:38:19.084Z,59.10
2023-04-02T00:40:47.045Z,58.00
2023-04-02T00:43:16.733Z,58.70
2023-04-02T00:45:51.112Z,58.30
2023-04-02T00:48:34.641Z,57.90
2023-04-02T00:51:11.575Z,56.40
2023-04-02T00:53:39.304Z,56.40
2023-04-02T00:56:09.493Z,56.60
2023-04-02T00:58:37.735Z,56.30
2023-04-02T01:01:17.432Z,55.80
2023-04-02T01:03:53.707Z,54.70
2023-04-02T01:06:23.894Z,55.30
2023-04-02T01:08:57.839Z,54.70
2023-04-02T01:11:32.891Z,54.20
2023-04-02T01:14:02.975Z,53.80
2023-04-02T01:16:36.402Z,53.30
2023-04-02T01:19:09.456Z,53.00
2023-04-02T01:21:43.028Z,52.60
2023-04-02T01:24:11.891Z,52.30
2023-04-02T01:26:53.860Z,52.80
2023-04-02T01:29:24.693Z,51.50
2023-04-02T01:31:52.749Z,51.80
2023-04-02T01:34:23.351Z,51.90
2023-04-02T01:36:59.649Z,51.40
2023-04-02T01:39:37.226Z,50.90
2023-04-02T01:42:07.395Z,50.60
2023-04-02T01:44:38.647Z,50.80
2023-04-02T01:47:08.307Z,50.40
2023-04-02T01:49:36.123Z,50.60
2023-04-02T01:52:03.889Z,50.30
2023-04-02T01:54:33.707Z,50.00
2023-04-02T01:57:01.478Z,50.00
2023-04-02T01:59:29.405Z,49.30
2023-04-02T02:02:04.355Z,49.40
2023-04-02T02:04:34.199Z,48.50
2023-04-02T02:07:01.997Z,48.50
2023-04-02T02:09:32.317Z,48.60
2023-04-02T02:12:00.171Z,48.50
2023-04-02T02:14:29.173Z,48.00
2023-04-02T02:16:57.667Z,47.70
2023-04-02T02:19:28.533Z,47.70
2023-04-02T02:21:57.604Z,47.20
2023-04-02T02:24:26.599Z,47.00
2023-04-02T02:27:01.928Z,46.80
2023-04-02T02:29:29.611Z,46.50
2023-04-02T02:31:57.491Z,47.40
2023-04-02T02:34:32.184Z,46.50
2023-04-02T02:37:01.276Z,45.90
2023-04-02T02:39:32.752Z,46.00
2023-04-02T02:42:02.166Z,45.70
2023-04-02T02:44:31.110Z,45.50
2023-04-02T02:47:00.987Z,45.50
2023-04-02T02:49:32.222Z,45.60
2023-04-02T02:52:07.596Z,45.20
2023-04-02T02:54:46.847Z,45.20
2023-04-02T02:57:15.778Z,45.10
2023-04-02T02:59:44.276Z,45.00
2023-04-02T03:02:12.031Z,45.00
2023-04-02T03:04:41.102Z,44.70
2023-04-02T03:07:16.109Z,44.90
2023-04-02T03:09:49.328Z,44.80
2023-04-02T03:12:28.455Z,44.50
2023-04-02T03:14:58.728Z,44.40
2023-04-02T03:17:28.833Z,44.50
2023-04-02T03:19:59.330Z,44.30
2023-04-02T03:22:29.723Z,44.50
2023-04-02T03:24:59.292Z,44.50
2023-04-02T03:27:28.945Z,44.30
2023-04-02T03:30:05.116Z,44.40
2023-04-02T03:32:36.627Z,44.10
2023-04-02T03:35:22.947Z,44.40
2023-04-02T03:37:54.075Z,44.20
2023-04-02T03:40:23.591Z,44.30
2023-04-02T03:42:53.538Z,44.30
2023-04-02T03:45:23.878Z,44.30
2023-04-02T03:47:53.799Z,44.30
2023-04-02T03:50:26.112Z,44.30
2023-04-02T03:52:58.087Z,44.30
2023-04-02T03:55:28.745Z,44.40
2023-04-02T03:57:59.284Z,44.40
2023-04-02T04:00:33.858Z,44.50
2023-04-02T04:03:04.412Z,44.40
2023-04-02T04:05:35.816Z,44.30
2023-04-02T04:08:06.022Z,44.40
2023-04-02T04:10:33.713Z,44.50
2023-04-02T04:13:04.038Z,44.40
2023-04-02T04:15:33.662Z,44.50
2023-04-02T04:18:04.328Z,44.60
2023-04-02T04:20:41.834Z,44.50
2023-04-02T04:23:11.919Z,44.50
2023-04-02T04:25:40.088Z,44.50
2023-04-02T04:28:17.140Z,44.70
2023-04-02T04:30:50.845Z,44.60
2023-04-02T04:33:23.105Z,44.70
2023-04-02T04:35:57.336Z,44.60
2023-04-02T04:38:32.628Z,44.70
2023-04-02T04:41:05.196Z,44.60
2023-04-02T04:43:42.048Z,44.80
2023-04-02T04:46:11.871Z,44.70
2023-04-02T04:48:42.393Z,44.80
2023-04-02T04:51:18.180Z,45.00
2023-04-02T04:53:47.738Z,44.90
2023-04-02T04:56:19.586Z,45.00
2023-04-02T04:58:53.785Z,45.10
2023-04-02T05:01:23.937Z,45.10
2023-04-02T05:03:53.049Z,45.10
2023-04-02T05:06:27.053Z,45.20
2023-04-02T05:08:56.516Z,45.10
2023-04-02T05:11:27.412Z,45.40
2023-04-02T05:13:56.338Z,45.40
2023-04-02T05:16:26.226Z,45.40
2023-04-02T05:18:56.755Z,45.40
2023-04-02T05:21:27.985Z,45.40
2023-04-02T05:23:57.199Z,45.40
2023-04-02T05:26:26.322Z,45.50
2023-04-02T05:28:55.685Z,45.50
2023-04-02T05:31:25.838Z,45.50
2023-04-02T05:33:54.392Z,45.60
2023-04-02T05:36:23.918Z,45.60
2023-04-02T05:38:57.633Z,45.70
2023-04-02T05:41:36.700Z,45.70
2023-04-02T05:44:07.562Z,45.80
2023-04-02T05:46:38.151Z,45.80
2023-04-02T05:49:08.573Z,45.90
2023-04-02T05:51:39.824Z,46.00
2023-04-02T05:54:16.986Z,46.10
2023-04-02T05:56:46.518Z,46.00
2023-04-02T05:59:16.748Z,46.10
2023-04-02T06:01:45.315Z,46.20
2023-04-02T06:04:21.610Z,46.30
2023-04-02T06:06:52.945Z,46.40
2023-04-02T06:09:31.525Z,46.40
2023-04-02T06:12:02.803Z,46.40
2023-04-02T06:14:30.602Z,46.50
2023-04-02T06:16:58.816Z,46.70
2023-04-02T06:19:30.114Z,46.70
2023-04-02T06:22:00.146Z,46.70
2023-04-02T06:24:29.518Z,46.80
2023-04-02T06:26:59.763Z,46.80
2023-04-02T06:29:30.101Z,46.90
2023-04-02T06:31:59.421Z,47.00
2023-04-02T06:34:28.562Z,47.00
2023-04-02T06:37:01.610Z,46.90
2023-04-02T06:39:32.172Z,47.00
2023-04-02T06:42:06.190Z,47.10
2023-04-02T06:44:52.121Z,47.10
2023-04-02T06:47:31.453Z,47.20
2023-04-02T06:50:01.854Z,47.20
2023-04-02T06:52:31.125Z,47.30
2023-04-02T06:55:01.120Z,47.30
2023-04-02T06:57:28.914Z,47.30
2023-04-02T06:59:56.596Z,47.30
2023-04-02T07:02:29.830Z,47.30
2023-04-02T07:05:02.332Z,47.30
2023-04-02T07:07:31.659Z,47.50
2023-04-02T07:10:03.973Z,47.40
2023-04-02T07:12:31.852Z,47.50
2023-04-02T07:14:59.541Z,47.50
2023-04-02T07:17:27.908Z,47.50
2023-04-02T07:19:55.781Z,47.50
2023-04-02T07:22:25.635Z,47.60
2023-04-02T07:24:58.638Z,47.60
2023-04-02T07:27:27.943Z,47.90
2023-04-02T07:29:55.733Z,47.90
2023-04-02T07:32:23.518Z,47.90
2023-04-02T07:34:51.634Z,48.00
2023-04-02T07:37:19.352Z,48.00
2023-04-02T07:39:47.056Z,48.00
2023-04-02T07:42:14.747Z,47.90
2023-04-02T07:44:43.820Z,47.90
2023-04-02T07:47:11.501Z,47.90
2023-04-02T07:49:39.180Z,48.00
2023-04-02T07:52:06.984Z,48.20
2023-04-02T07:54:35.680Z,48.20
2023-04-02T07:57:03.713Z,48.30
2023-04-02T07:59:31.454Z,48.30
2023-04-02T08:02:00.637Z,48.40
2023-04-02T08:04:28.331Z,48.40
2023-04-02T08:06:56.008Z,48.60
2023-04-02T08:09:23.671Z,48.90
2023-04-02T08:11:51.355Z,47.40
2023-04-02T08:14:19.035Z,46.90
2023-04-02T08:16:48.089Z,46.70
2023-04-02T08:19:17.217Z,46.30
2023-04-02T08:21:45.038Z,46.30
2023-04-02T08:24:12.762Z,46.00
2023-04-02T08:26:40.428Z,46.00
2023-04-02T08:29:08.094Z,45.90
2023-04-02T08:31:35.829Z,45.80
2023-04-02T08:34:03.552Z,45.80
2023-04-02T08:36:34.866Z,45.80
2023-04-02T08:39:02.790Z,45.60
2023-04-02T08:41:32.160Z,46.00
2023-04-02T08:44:15.157Z,46.20
2023-04-02T08:46:44.673Z,46.30
2023-04-02T08:49:13.618Z,46.60
2023-04-02T08:51:42.668Z,46.40
2023-04-02T08:54:19.344Z,45.80
2023-04-02T08:56:50.423Z,45.80
2023-04-02T08:59:21.921Z,38.60
2023-04-02T09:01:51.646Z,36.00
2023-04-02T09:04:21.197Z,35.10
2023-04-02T09:06:51.358Z,34.60
2023-04-02T09:09:19.216Z,37.00
2023-04-02T09:11:51.700Z,37.90
2023-04-02T09:14:20.759Z,38.40
2023-04-02T09:16:50.586Z,39.50
2023-04-02T09:19:20.897Z,40.10
2023-04-02T09:21:56.903Z,41.00
2023-04-02T09:24:24.722Z,41.10
2023-04-02T09:26:52.489Z,41.70
2023-04-02T09:29:35.503Z,42.20
2023-04-02T09:32:08.012Z,43.50
2023-04-02T09:34:36.430Z,43.30
2023-04-02T09:37:09.134Z,43.60
2023-04-02T09:39:37.200Z,43.90
2023-04-02T09:42:08.642Z,43.70
2023-04-02T09:44:36.983Z,44.10
2023-04-02T09:47:06.049Z,44.50
2023-04-02T09:49:34.346Z,45.00
2023-04-02T09:52:22.284Z,45.30
2023-04-02T09:55:21.689Z,45.60
2023-04-02T09:57:50.415Z,47.10
2023-04-02T10:00:31.661Z,46.20
2023-04-02T10:03:05.605Z,46.40
2023-04-02T10:05:40.617Z,47.30
2023-04-02T10:08:19.348Z,47.40
2023-04-02T10:10:48.772Z,47.90
2023-04-02T10:13:19.677Z,47.70
2023-04-02T10:15:49.678Z,48.00
2023-04-02T10:18:21.112Z,48.30
2023-04-02T10:20:51.529Z,48.30
2023-04-02T10:23:21.567Z,48.40
2023-04-02T10:25:50.773Z,48.10
2023-04-02T10:28:23.599Z,49.00
2023-04-02T10:30:54.997Z,49.60
2023-04-02T10:33:25.560Z,49.90
2023-04-02T10:35:55.322Z,49.80
2023-04-02T10:38:30.938Z,50.30
2023-04-02T10:41:00.338Z,50.60
2023-04-02T10:43:54.746Z,51.00
2023-04-02T10:46:25.409Z,51.20
2023-04-02T10:48:58.355Z,51.30
2023-04-02T10:51:29.933Z,51.30
2023-04-02T10:54:02.145Z,52.30
2023-04-02T10:56:37.696Z,52.40
2023-04-02T10:59:14.470Z,52.50
2023-04-02T11:01:42.312Z,52.60
2023-04-02T11:04:15.795Z,52.80
2023-04-02T11:06:44.808Z,53.00
2023-04-02T11:09:16.718Z,52.70
2023-04-02T11:11:45.397Z,53.50
2023-04-02T11:14:14.753Z,53.60
2023-04-02T11:16:44.580Z,53.40
2023-04-02T11:19:24.408Z,54.60
2023-04-02T11:21:58.709Z,54.70
2023-04-02T11:24:37.804Z,53.40
2023-04-02T11:27:06.999Z,53.50
2023-04-02T11:29:34.978Z,54.80
2023-04-02T11:32:15.572Z,53.90
2023-04-02T11:35:20.172Z,53.10
2023-04-02T11:37:49.616Z,56.00
2023-04-02T11:40:47.671Z,53.80
2023-04-02T11:43:50.814Z,53.10
2023-04-02T11:46:41.041Z,51.40
2023-04-02T11:49:34.960Z,51.00
2023-04-02T11:52:11.513Z,50.00
2023-04-02T11:54:40.402Z,51.80
2023-04-02T11:57:13.973Z,50.60
2023-04-02T11:59:44.025Z,49.00
2023-04-02T12:02:15.092Z,49.40
2023-04-02T12:05:04.197Z,49.50
2023-04-02T12:07:37.112Z,48.70
2023-04-02T12:10:05.769Z,48.10
2023-04-02T12:12:37.397Z,47.90
2023-04-02T12:15:08.470Z,47.80
2023-04-02T12:17:37.270Z,47.60
2023-04-02T12:20:20.245Z,46.20
2023-04-02T12:22:50.583Z,45.80
2023-04-02T12:25:24.399Z,46.00
2023-04-02T12:28:06.354Z,45.50
2023-04-02T12:30:34.225Z,45.00
2023-04-02T12:33:16.306Z,44.50
2023-04-02T12:35:44.521Z,44.10
2023-04-02T12:38:22.677Z,44.80
2023-04-02T12:40:53.990Z,44.20
2023-04-02T12:43:27.090Z,44.90
2023-04-02T12:45:55.205Z,45.10
2023-04-02T12:48:23.188Z,45.90
2023-04-02T12:50:50.902Z,46.20
2023-04-02T12:53:21.475Z,47.10
2023-04-02T12:55:49.299Z,46.90
2023-04-02T12:58:27.408Z,47.60
2023-04-02T13:01:10.414Z,47.80
2023-04-02T13:03:38.206Z,48.30
2023-04-02T13:06:12.841Z,48.30
2023-04-02T13:08:42.689Z,48.00
2023-04-02T13:11:10.521Z,48.90
2023-04-02T13:13:40.321Z,49.80
2023-04-02T13:16:22.452Z,49.20
2023-04-02T13:18:50.961Z,49.90
2023-04-02T13:21:28.343Z,50.20
2023-04-02T13:23:56.482Z,51.50
2023-04-02T13:26:25.689Z,49.60
2023-04-02T13:28:59.010Z,49.70
2023-04-02T13:31:26.721Z,50.60
2023-04-02T13:33:54.436Z,49.50
2023-04-02T13:36:22.104Z,48.90
2023-04-02T13:38:49.776Z,48.60
2023-04-02T13:41:22.557Z,50.20
2023-04-02T13:43:50.783Z,51.00
2023-04-02T13:46:22.259Z,50.10
2023-04-02T13:48:50.454Z,51.00
2023-04-02T13:51:18.752Z,50.00
2023-04-02T13:53:46.953Z,48.10
2023-04-02T13:56:14.673Z,48.40
2023-04-02T13:58:42.410Z,46.90
2023-04-02T14:01:10.141Z,43.20
2023-04-02T14:03:39.192Z,40.50
2023-04-02T14:06:10.482Z,41.90
2023-04-02T14:08:44.853Z,37.10
2023-04-02T14:11:29.089Z,34.90
2023-04-02T14:14:21.748Z,33.60
2023-04-02T14:16:53.254Z,37.50
2023-04-02T14:19:29.902Z,38.00
2023-04-02T14:22:01.922Z,38.60
2023-04-02T14:24:31.673Z,40.30
2023-04-02T14:27:21.062Z,40.70
2023-04-02T14:29:51.514Z,41.10
2023-04-02T14:32:21.800Z,42.40
2023-04-02T14:34:53.940Z,42.30
2023-04-02T14:37:23.890Z,42.80
2023-04-02T14:39:57.450Z,42.50
2023-04-02T14:42:28.779Z,43.10
2023-04-02T14:44:58.727Z,42.60
2023-04-02T14:47:29.200Z,43.70
2023-04-02T14:49:59.916Z,42.30
2023-04-02T14:52:28.230Z,42.40
2023-04-02T14:54:57.485Z,42.10
2023-04-02T14:57:26.368Z,41.40
2023-04-02T14:59:58.934Z,41.20
2023-04-02T15:02:31.459Z,41.20
2023-04-02T15:05:01.788Z,41.10
2023-04-02T15:07:32.007Z,41.80
2023-04-02T15:10:05.972Z,41.90
2023-04-02T15:12:34.455Z,40.40
2023-04-02T15:15:04.777Z,40.40
2023-04-02T15:17:32.632Z,41.30
2023-04-02T15:20:09.631Z,41.60
2023-04-02T15:22:38.267Z,41.00
2023-04-02T15:25:14.838Z,41.10
2023-04-02T15:27:53.205Z,39.90
2023-04-02T15:30:23.055Z,40.40
2023-04-02T15:32:51.332Z,40.10
2023-04-02T15:35:32.530Z,39.50
2023-04-02T15:38:02.225Z,39.40
2023-04-02T15:40:47.660Z,39.50
2023-04-02T15:43:19.741Z,38.10
2023-04-02T15:45:52.056Z,37.50
2023-04-02T15:48:37.544Z,38.50
2023-04-02T15:51:13.981Z,39.70
2023-04-02T15:53:48.195Z,39.20
2023-04-02T15:56:30.164Z,39.70
2023-04-02T15:59:03.435Z,41.40
2023-04-02T16:01:35.802Z,41.10
2023-04-02T16:04:19.400Z,41.70
2023-04-02T16:07:09.405Z,41.40
2023-04-02T16:09:40.520Z,41.60
2023-04-02T16:12:12.446Z,42.50
2023-04-02T16:14:44.214Z,42.50
2023-04-02T16:17:24.409Z,42.20
2023-04-02T16:19:54.170Z,42.10
2023-04-02T16:22:25.213Z,42.70
2023-04-02T16:24:57.014Z,43.20
2023-04-02T16:27:26.936Z,43.20
2023-04-02T16:29:59.908Z,43.90
2023-04-02T16:32:40.169Z,42.80
2023-04-02T16:35:38.175Z,42.30
2023-04-02T16:38:07.652Z,43.10
2023-04-02T16:40:38.966Z,43.20
2023-04-02T16:43:13.065Z,43.70
2023-04-02T16:45:43.696Z,42.70
2023-04-02T16:48:14.683Z,43.30
2023-04-02T16:50:47.501Z,42.70
2023-04-02T16:53:22.997Z,42.90
2023-04-02T16:56:03.328Z,42.80
2023-04-02T16:58:37.375Z,42.80
2023-04-02T17:01:08.527Z,43.20
2023-04-02T17:04:10.891Z,43.10
2023-04-02T17:06:42.259Z,43.30
2023-04-02T17:09:16.142Z,43.60
2023-04-02T17:11:46.304Z,44.00
2023-04-02T17:14:21.209Z,44.00
2023-04-02T17:16:51.086Z,43.60
2023-04-02T17:19:18.829Z,44.20
2023-04-02T17:21:47.246Z,44.10
2023-04-02T17:24:22.340Z,44.30
2023-04-02T17:26:52.493Z,44.20
2023-04-02T17:29:21.296Z,45.20
2023-04-02T17:31:49.063Z,44.50
2023-04-02T17:34:17.522Z,44.50
2023-04-02T17:36:48.111Z,44.90
2023-04-02T17:39:20.071Z,44.80
2023-04-02T17:41:49.792Z,44.80
2023-04-02T17:44:29.488Z,45.20
2023-04-02T17:46:59.817Z,45.20
2023-04-02T17:49:37.309Z,45.40
2023-04-02T17:52:06.732Z,45.30
2023-04-02T17:54:40.092Z,45.60
2023-04-02T17:57:16.613Z,45.50
2023-04-02T17:59:50.335Z,46.00
2023-04-02T18:02:28.928Z,45.60
2023-04-02T18:04:58.845Z,46.00
2023-04-02T18:07:32.056Z,45.80
2023-04-02T18:10:04.648Z,46.50
2023-04-02T18:12:44.355Z,46.20
2023-04-02T18:15:28.670Z,46.60
2023-04-02T18:17:59.320Z,46.60
2023-04-02T18:20:30.852Z,46.90
2023-04-02T18:23:01.938Z,46.50
2023-04-02T18:25:42.706Z,46.60
2023-04-02T18:28:17.264Z,46.90
2023-04-02T18:30:48.151Z,46.80
2023-04-02T18:33:22.931Z,46.80
2023-04-02T18:35:54.414Z,47.40
2023-04-02T18:38:24.757Z,47.40
2023-04-02T18:41:08.191Z,47.40
2023-04-02T18:43:43.211Z,47.60
2023-04-02T18:46:14.592Z,47.60
2023-04-02T18:48:45.678Z,47.40
2023-04-02T18:51:16.351Z,47.70
2023-04-02T18:53:44.163Z,47.60
2023-04-02T18:56:15.003Z,47.80
2023-04-02T18:58:49.203Z,48.00
2023-04-02T19:01:18.281Z,48.20
2023-04-02T19:03:47.581Z,47.90
2023-04-02T19:06:19.106Z,48.10
2023-04-02T19:08:48.381Z,48.20
2023-04-02T19:11:18.929Z,48.20
2023-04-02T19:13:48.306Z,48.40
2023-04-02T19:16:35.745Z,48.30
2023-04-02T19:19:06.644Z,48.50
2023-04-02T19:21:37.371Z,48.50
2023-04-02T19:24:13.651Z,48.60
2023-04-02T19:26:45.156Z,48.60
2023-04-02T19:29:19.702Z,48.70
2023-04-02T19:31:50.847Z,48.70
2023-04-02T19:34:21.315Z,49.10
2023-04-02T19:36:49.411Z,49.10
2023-04-02T19:39:30.899Z,48.90
2023-04-02T19:42:01.707Z,49.30
2023-04-02T19:44:29.379Z,49.20
2023-04-02T19:46:57.108Z,49.60
2023-04-02T19:49:26.595Z,49.40
2023-04-02T19:51:54.317Z,49.50
2023-04-02T19:54:22.050Z,49.60
2023-04-02T19:56:49.775Z,49.70
2023-04-02T19:59:19.066Z,49.90
2023-04-02T20:01:46.968Z,50.20
2023-04-02T20:04:14.952Z,50.50
2023-04-02T20:06:43.309Z,50.90
2023-04-02T20:09:11.022Z,51.00
2023-04-02T20:11:39.042Z,51.20
2023-04-02T20:14:06.760Z,51.60
2023-04-02T20:16:36.892Z,52.00
2023-04-02T20:19:04.652Z,52.60
2023-04-02T20:21:37.982Z,52.80
2023-04-02T20:24:06.508Z,53.30
2023-04-02T20:26:34.706Z,53.70
2023-04-02T20:29:02.531Z,54.40
2023-04-02T20:31:31.505Z,54.50
2023-04-02T20:34:02.381Z,55.30
2023-04-02T20:36:30.309Z,56.00
2023-04-02T20:38:58.582Z,55.90
2023-04-02T20:41:26.509Z,56.70
2023-04-02T20:43:54.310Z,57.00
2023-04-02T20:46:22.380Z,57.20
2023-04-02T20:48:50.142Z,57.80
2023-04-02T20:51:19.256Z,58.00
2023-04-02T20:53:47.680Z,58.50
2023-04-02T20:56:16.293Z,58.40
2023-04-02T20:58:44.083Z,59.00
2023-04-02T21:01:12.867Z,58.80
2023-04-02T21:03:40.697Z,59.10
2023-04-02T21:06:12.717Z,59.10
2023-04-02T21:08:41.808Z,59.20
2023-04-02T21:11:09.647Z,59.50
2023-04-02T21:13:37.518Z,59.70
2023-04-02T21:16:05.783Z,59.60
2023-04-02T21:18:33.575Z,59.70
2023-04-02T21:21:01.732Z,59.50
2023-04-02T21:23:29.438Z,59.60
2023-04-02T21:25:59.205Z,59.60
2023-04-02T21:28:26.890Z,60.00
2023-04-02T21:31:01.952Z,59.60
2023-04-02T21:33:29.674Z,59.60
2023-04-02T21:35:57.441Z,59.70
2023-04-02T21:38:25.774Z,59.70
2023-04-02T21:40:53.459Z,59.80
2023-04-02T21:43:22.430Z,59.80
2023-04-02T21:45:50.152Z,60.00
2023-04-02T21:48:17.913Z,60.00
2023-04-02T21:50:46.109Z,60.00
2023-04-02T21:53:13.813Z,59.80
2023-04-02T21:55:41.485Z,60.10
2023-04-02T21:58:09.126Z,59.80
2023-04-02T22:00:38.534Z,59.80
2023-04-02T22:03:06.405Z,59.90
2023-04-02T22:05:34.369Z,60.00
2023-04-02T22:08:02.319Z,60.10
2023-04-02T22:10:30.038Z,59.80
2023-04-02T22:12:57.695Z,59.80
2023-04-02T22:15:25.505Z,59.60
2023-04-02T22:17:54.639Z,59.70
2023-04-02T22:20:22.373Z,59.70
2023-04-02T22:22:50.406Z,59.60
2023-04-02T22:25:18.164Z,59.50
2023-04-02T22:27:45.928Z,59.50
2023-04-02T22:30:14.058Z,59.50
2023-04-02T22:32:41.763Z,59.20
2023-04-02T22:35:11.090Z,59.20
2023-04-02T22:37:38.766Z,59.40
2023-04-02T22:40:07.832Z,59.20
2023-04-02T22:42:35.505Z,59.10
2023-04-02T22:45:04.741Z,59.20
2023-04-02T22:47:32.449Z,59.40
2023-04-02T22:50:00.177Z,59.50
2023-04-02T22:52:29.198Z,59.40
2023-04-02T22:54:56.882Z,59.30
2023-04-02T22:57:24.628Z,59.00
2023-04-02T22:59:52.283Z,59.10
2023-04-02T23:02:19.982Z,59.20
2023-04-02T23:04:47.699Z,59.10
2023-04-02T23:07:15.372Z,59.20
2023-04-02T23:09:44.348Z,59.10
2023-04-02T23:12:12.212Z,59.10
2023-04-02T23:14:39.858Z,59.00
2023-04-02T23:17:07.587Z,58.80
2023-04-02T23:19:35.406Z,58.60
2023-04-02T23:22:03.106Z,58.50
2023-04-02T23:24:30.809Z,58.60
2023-04-02T23:26:59.820Z,58.40
2023-04-02T23:29:27.507Z,58.30
2023-04-02T23:31:55.249Z,58.30
2023-04-02T23:34:22.959Z,58.10
2023-04-02T23:36:50.649Z,58.00
2023-04-02T23:39:20.058Z,58.00
2023-04-02T23:41:48.544Z,57.70
2023-04-02T23:44:17.592Z,57.80
2023-04-02T23:46:45.400Z,57.80
2023-04-02T23:49:13.427Z,57.50
2023-04-02T23:51:41.693Z,57.50
2023-04-02T23:54:09.426Z,57.30
2023-04-02T23:56:37.092Z,57.20
2023-04-02T23:59:04.950Z,56.90
